sensor_id;sensor_type;location;lat;lon;timestamp;P1;durP1;ratioP1;P2;durP2;ratioP2
58071;SDS011;60383;46.626;18.866;2022-10-16T00:01:08;8.02;;;6.22;;
58071;SDS011;60383;46.626;18.866;2022-10-16T00:03:36;10.55;;;5.70;;
58071;SDS011;60383;46.626;18.866;2022-10-16T00:06:06;9.75;;;5.75;;
58071;SDS011;60383;46.626;18.866;2022-10-16T00:08:33;8.35;;;5.50;;
58071;SDS011;60383;46.626;18.866;2022-10-16T00:11:10;8.88;;;6.05;;
58071;SDS011;60383;46.626;18.866;2022-10-16T00:13:39;6.93;;;5.55;;
58071;SDS011;60383;46.626;18.866;2022-10-16T00:16:07;10.13;;;6.07;;
58071;SDS011;60383;46.626;18.866;2022-10-16T00:18:33;7.93;;;5.63;;
58071;SDS011;60383;46.626;18.866;2022-10-16T00:21:03;10.35;;;6.07;;
58071;SDS011;60383;46.626;18.866;2022-10-16T00:25:59;8.65;;;5.90;;
58071;SDS011;60383;46.626;18.866;2022-10-16T00:28:27;7.93;;;5.80;;
58071;SDS011;60383;46.626;18.866;2022-10-16T00:30:52;8.73;;;5.90;;
58071;SDS011;60383;46.626;18.866;2022-10-16T00:33:18;8.13;;;5.88;;
58071;SDS011;60383;46.626;18.866;2022-10-16T00:35:44;7.72;;;5.40;;
58071;SDS011;60383;46.626;18.866;2022-10-16T00:38:09;9.82;;;5.90;;
58071;SDS011;60383;46.626;18.866;2022-10-16T00:40:35;9.52;;;5.78;;
58071;SDS011;60383;46.626;18.866;2022-10-16T00:43:00;8.98;;;6.28;;
58071;SDS011;60383;46.626;18.866;2022-10-16T00:45:25;8.15;;;6.13;;
58071;SDS011;60383;46.626;18.866;2022-10-16T00:47:51;8.82;;;6.00;;
58071;SDS011;60383;46.626;18.866;2022-10-16T00:50:24;10.05;;;6.22;;
58071;SDS011;60383;46.626;18.866;2022-10-16T00:52:55;8.10;;;6.32;;
58071;SDS011;60383;46.626;18.866;2022-10-16T00:55:21;9.98;;;6.35;;
58071;SDS011;60383;46.626;18.866;2022-10-16T00:57:47;8.65;;;5.70;;
58071;SDS011;60383;46.626;18.866;2022-10-16T01:00:16;10.45;;;5.93;;
58071;SDS011;60383;46.626;18.866;2022-10-16T01:02:57;11.68;;;6.60;;
58071;SDS011;60383;46.626;18.866;2022-10-16T01:05:37;9.32;;;5.75;;
58071;SDS011;60383;46.626;18.866;2022-10-16T01:08:12;9.52;;;6.13;;
58071;SDS011;60383;46.626;18.866;2022-10-16T01:15:57;9.43;;;6.15;;
58071;SDS011;60383;46.626;18.866;2022-10-16T01:18:37;8.73;;;5.88;;
58071;SDS011;60383;46.626;18.866;2022-10-16T01:21:19;9.30;;;6.13;;
58071;SDS011;60383;46.626;18.866;2022-10-16T01:29:14;9.45;;;5.90;;
58071;SDS011;60383;46.626;18.866;2022-10-16T01:31:47;10.80;;;6.30;;
58071;SDS011;60383;46.626;18.866;2022-10-16T01:34:18;7.25;;;5.63;;
58071;SDS011;60383;46.626;18.866;2022-10-16T01:36:57;11.85;;;5.95;;
58071;SDS011;60383;46.626;18.866;2022-10-16T01:39:30;7.47;;;5.70;;
58071;SDS011;60383;46.626;18.866;2022-10-16T01:42:04;7.65;;;5.55;;
58071;SDS011;60383;46.626;18.866;2022-10-16T01:44:34;7.50;;;5.97;;
58071;SDS011;60383;46.626;18.866;2022-10-16T01:47:02;11.45;;;6.20;;
58071;SDS011;60383;46.626;18.866;2022-10-16T01:49:32;8.82;;;5.95;;
58071;SDS011;60383;46.626;18.866;2022-10-16T01:52:02;10.63;;;6.43;;
58071;SDS011;60383;46.626;18.866;2022-10-16T01:54:32;7.93;;;5.78;;
58071;SDS011;60383;46.626;18.866;2022-10-16T01:57:00;8.77;;;5.75;;
58071;SDS011;60383;46.626;18.866;2022-10-16T01:59:29;9.40;;;6.43;;
58071;SDS011;60383;46.626;18.866;2022-10-16T02:02:00;8.60;;;5.65;;
58071;SDS011;60383;46.626;18.866;2022-10-16T02:04:30;10.25;;;6.10;;
58071;SDS011;60383;46.626;18.866;2022-10-16T02:07:02;9.13;;;5.82;;
58071;SDS011;60383;46.626;18.866;2022-10-16T02:09:29;14.25;;;10.43;;
58071;SDS011;60383;46.626;18.866;2022-10-16T02:11:59;6.32;;;5.50;;
58071;SDS011;60383;46.626;18.866;2022-10-16T02:16:55;9.20;;;6.20;;
58071;SDS011;60383;46.626;18.866;2022-10-16T02:19:21;10.63;;;5.95;;
58071;SDS011;60383;46.626;18.866;2022-10-16T02:21:57;8.63;;;6.07;;
58071;SDS011;60383;46.626;18.866;2022-10-16T02:24:33;14.57;;;11.43;;
58071;SDS011;60383;46.626;18.866;2022-10-16T02:29:49;8.63;;;5.70;;
58071;SDS011;60383;46.626;18.866;2022-10-16T02:32:24;9.57;;;5.85;;
58071;SDS011;60383;46.626;18.866;2022-10-16T02:34:53;7.25;;;6.03;;
58071;SDS011;60383;46.626;18.866;2022-10-16T02:37:19;7.93;;;5.80;;
58071;SDS011;60383;46.626;18.866;2022-10-16T02:39:45;8.15;;;6.25;;
58071;SDS011;60383;46.626;18.866;2022-10-16T02:42:14;8.02;;;6.20;;
58071;SDS011;60383;46.626;18.866;2022-10-16T02:44:40;8.60;;;6.30;;
58071;SDS011;60383;46.626;18.866;2022-10-16T02:47:05;12.73;;;6.82;;
58071;SDS011;60383;46.626;18.866;2022-10-16T02:49:31;8.45;;;6.35;;
58071;SDS011;60383;46.626;18.866;2022-10-16T02:51:56;9.40;;;6.32;;
58071;SDS011;60383;46.626;18.866;2022-10-16T02:54:22;9.25;;;6.43;;
58071;SDS011;60383;46.626;18.866;2022-10-16T02:56:47;11.68;;;5.90;;
58071;SDS011;60383;46.626;18.866;2022-10-16T02:59:13;8.63;;;6.10;;
58071;SDS011;60383;46.626;18.866;2022-10-16T03:01:38;8.88;;;6.43;;
58071;SDS011;60383;46.626;18.866;2022-10-16T03:04:03;7.35;;;5.72;;
58071;SDS011;60383;46.626;18.866;2022-10-16T03:06:29;10.27;;;5.75;;
58071;SDS011;60383;46.626;18.866;2022-10-16T03:08:54;10.30;;;7.13;;
58071;SDS011;60383;46.626;18.866;2022-10-16T03:11:20;9.20;;;6.00;;
58071;SDS011;60383;46.626;18.866;2022-10-16T03:13:45;10.77;;;6.30;;
58071;SDS011;60383;46.626;18.866;2022-10-16T03:16:11;8.40;;;5.90;;
58071;SDS011;60383;46.626;18.866;2022-10-16T03:18:36;8.95;;;6.38;;
58071;SDS011;60383;46.626;18.866;2022-10-16T03:21:01;10.98;;;7.93;;
58071;SDS011;60383;46.626;18.866;2022-10-16T03:23:27;10.70;;;8.70;;
58071;SDS011;60383;46.626;18.866;2022-10-16T03:25:53;15.93;;;12.27;;
58071;SDS011;60383;46.626;18.866;2022-10-16T03:28:18;10.13;;;6.65;;
58071;SDS011;60383;46.626;18.866;2022-10-16T03:30:44;8.88;;;6.43;;
58071;SDS011;60383;46.626;18.866;2022-10-16T03:33:09;9.82;;;6.60;;
58071;SDS011;60383;46.626;18.866;2022-10-16T03:35:35;10.48;;;6.40;;
58071;SDS011;60383;46.626;18.866;2022-10-16T03:38:00;9.65;;;6.40;;
58071;SDS011;60383;46.626;18.866;2022-10-16T03:40:26;8.48;;;6.40;;
58071;SDS011;60383;46.626;18.866;2022-10-16T03:42:51;8.13;;;6.43;;
58071;SDS011;60383;46.626;18.866;2022-10-16T03:45:18;10.73;;;8.10;;
58071;SDS011;60383;46.626;18.866;2022-10-16T03:47:43;12.55;;;8.05;;
58071;SDS011;60383;46.626;18.866;2022-10-16T03:50:08;13.02;;;7.43;;
58071;SDS011;60383;46.626;18.866;2022-10-16T03:52:34;8.30;;;6.65;;
58071;SDS011;60383;46.626;18.866;2022-10-16T03:54:59;9.05;;;6.72;;
58071;SDS011;60383;46.626;18.866;2022-10-16T03:57:25;10.45;;;7.00;;
58071;SDS011;60383;46.626;18.866;2022-10-16T03:59:50;11.32;;;6.47;;
58071;SDS011;60383;46.626;18.866;2022-10-16T04:02:16;11.52;;;7.13;;
58071;SDS011;60383;46.626;18.866;2022-10-16T04:04:41;10.35;;;6.72;;
58071;SDS011;60383;46.626;18.866;2022-10-16T04:07:06;11.15;;;6.95;;
58071;SDS011;60383;46.626;18.866;2022-10-16T04:09:32;9.65;;;6.28;;
58071;SDS011;60383;46.626;18.866;2022-10-16T04:11:57;9.90;;;6.72;;
58071;SDS011;60383;46.626;18.866;2022-10-16T04:14:23;9.27;;;6.55;;
58071;SDS011;60383;46.626;18.866;2022-10-16T04:16:48;13.57;;;7.20;;
58071;SDS011;60383;46.626;18.866;2022-10-16T04:19:13;10.30;;;6.90;;
58071;SDS011;60383;46.626;18.866;2022-10-16T04:21:39;9.45;;;6.93;;
58071;SDS011;60383;46.626;18.866;2022-10-16T04:24:04;9.60;;;7.15;;
58071;SDS011;60383;46.626;18.866;2022-10-16T04:26:29;11.00;;;7.18;;
58071;SDS011;60383;46.626;18.866;2022-10-16T04:28:55;10.55;;;7.22;;
58071;SDS011;60383;46.626;18.866;2022-10-16T04:31:21;9.07;;;7.15;;
58071;SDS011;60383;46.626;18.866;2022-10-16T04:33:46;13.98;;;7.68;;
58071;SDS011;60383;46.626;18.866;2022-10-16T04:36:12;10.50;;;6.80;;
58071;SDS011;60383;46.626;18.866;2022-10-16T04:38:38;8.52;;;6.75;;
58071;SDS011;60383;46.626;18.866;2022-10-16T04:41:05;8.63;;;6.85;;
58071;SDS011;60383;46.626;18.866;2022-10-16T04:43:31;10.82;;;6.97;;
58071;SDS011;60383;46.626;18.866;2022-10-16T04:45:57;11.13;;;7.75;;
58071;SDS011;60383;46.626;18.866;2022-10-16T04:48:22;9.82;;;7.22;;
58071;SDS011;60383;46.626;18.866;2022-10-16T04:50:48;13.68;;;7.60;;
58071;SDS011;60383;46.626;18.866;2022-10-16T04:53:13;8.45;;;7.45;;
58071;SDS011;60383;46.626;18.866;2022-10-16T04:55:39;11.98;;;7.68;;
58071;SDS011;60383;46.626;18.866;2022-10-16T04:58:06;9.23;;;6.97;;
58071;SDS011;60383;46.626;18.866;2022-10-16T05:00:32;11.90;;;7.43;;
58071;SDS011;60383;46.626;18.866;2022-10-16T05:02:58;10.10;;;7.85;;
58071;SDS011;60383;46.626;18.866;2022-10-16T05:05:25;12.38;;;7.68;;
58071;SDS011;60383;46.626;18.866;2022-10-16T05:07:51;9.68;;;7.00;;
58071;SDS011;60383;46.626;18.866;2022-10-16T05:10:16;10.00;;;7.50;;
58071;SDS011;60383;46.626;18.866;2022-10-16T05:12:42;10.02;;;7.25;;
58071;SDS011;60383;46.626;18.866;2022-10-16T05:15:07;10.40;;;7.13;;
58071;SDS011;60383;46.626;18.866;2022-10-16T05:17:33;11.05;;;7.95;;
58071;SDS011;60383;46.626;18.866;2022-10-16T05:19:59;8.18;;;7.25;;
58071;SDS011;60383;46.626;18.866;2022-10-16T05:22:24;9.50;;;7.00;;
58071;SDS011;60383;46.626;18.866;2022-10-16T05:24:50;8.60;;;6.95;;
58071;SDS011;60383;46.626;18.866;2022-10-16T05:27:15;11.30;;;7.43;;
58071;SDS011;60383;46.626;18.866;2022-10-16T05:29:44;9.55;;;6.97;;
58071;SDS011;60383;46.626;18.866;2022-10-16T05:32:12;10.95;;;7.15;;
58071;SDS011;60383;46.626;18.866;2022-10-16T05:34:38;9.95;;;7.38;;
58071;SDS011;60383;46.626;18.866;2022-10-16T05:37:03;9.82;;;7.03;;
58071;SDS011;60383;46.626;18.866;2022-10-16T05:39:29;9.70;;;7.03;;
58071;SDS011;60383;46.626;18.866;2022-10-16T05:41:55;10.77;;;7.63;;
58071;SDS011;60383;46.626;18.866;2022-10-16T05:44:20;8.95;;;6.88;;
58071;SDS011;60383;46.626;18.866;2022-10-16T05:46:46;9.82;;;7.68;;
58071;SDS011;60383;46.626;18.866;2022-10-16T05:49:11;10.07;;;7.30;;
58071;SDS011;60383;46.626;18.866;2022-10-16T05:51:37;8.80;;;7.45;;
58071;SDS011;60383;46.626;18.866;2022-10-16T05:54:03;9.55;;;7.07;;
58071;SDS011;60383;46.626;18.866;2022-10-16T05:56:28;12.55;;;7.45;;
58071;SDS011;60383;46.626;18.866;2022-10-16T05:58:54;10.13;;;7.03;;
58071;SDS011;60383;46.626;18.866;2022-10-16T06:01:19;9.18;;;6.50;;
58071;SDS011;60383;46.626;18.866;2022-10-16T06:04:03;12.43;;;7.65;;
58071;SDS011;60383;46.626;18.866;2022-10-16T06:06:29;10.02;;;7.00;;
58071;SDS011;60383;46.626;18.866;2022-10-16T06:08:56;8.95;;;7.25;;
58071;SDS011;60383;46.626;18.866;2022-10-16T06:11:26;10.43;;;7.25;;
58071;SDS011;60383;46.626;18.866;2022-10-16T06:13:58;10.52;;;7.28;;
58071;SDS011;60383;46.626;18.866;2022-10-16T06:16:27;7.45;;;6.63;;
58071;SDS011;60383;46.626;18.866;2022-10-16T06:18:53;8.23;;;6.40;;
58071;SDS011;60383;46.626;18.866;2022-10-16T06:21:24;10.40;;;7.20;;
58071;SDS011;60383;46.626;18.866;2022-10-16T06:23:50;7.70;;;6.65;;
58071;SDS011;60383;46.626;18.866;2022-10-16T06:26:17;9.38;;;6.55;;
58071;SDS011;60383;46.626;18.866;2022-10-16T06:28:45;8.82;;;6.60;;
58071;SDS011;60383;46.626;18.866;2022-10-16T06:31:11;9.32;;;7.15;;
58071;SDS011;60383;46.626;18.866;2022-10-16T06:33:37;7.15;;;6.15;;
58071;SDS011;60383;46.626;18.866;2022-10-16T06:36:07;10.85;;;7.07;;
58071;SDS011;60383;46.626;18.866;2022-10-16T06:38:34;10.07;;;7.25;;
58071;SDS011;60383;46.626;18.866;2022-10-16T06:41:00;9.65;;;7.35;;
58071;SDS011;60383;46.626;18.866;2022-10-16T06:43:25;8.68;;;7.45;;
58071;SDS011;60383;46.626;18.866;2022-10-16T06:45:55;9.70;;;8.30;;
58071;SDS011;60383;46.626;18.866;2022-10-16T06:48:23;9.95;;;7.20;;
58071;SDS011;60383;46.626;18.866;2022-10-16T06:50:59;11.63;;;7.85;;
58071;SDS011;60383;46.626;18.866;2022-10-16T06:53:33;12.63;;;8.20;;
58071;SDS011;60383;46.626;18.866;2022-10-16T06:56:10;9.95;;;7.78;;
58071;SDS011;60383;46.626;18.866;2022-10-16T06:58:40;10.10;;;7.73;;
58071;SDS011;60383;46.626;18.866;2022-10-16T07:01:06;11.02;;;8.02;;
58071;SDS011;60383;46.626;18.866;2022-10-16T07:03:33;10.88;;;7.60;;
58071;SDS011;60383;46.626;18.866;2022-10-16T07:06:03;10.85;;;7.78;;
58071;SDS011;60383;46.626;18.866;2022-10-16T07:08:31;11.37;;;7.73;;
58071;SDS011;60383;46.626;18.866;2022-10-16T07:11:04;8.48;;;7.15;;
58071;SDS011;60383;46.626;18.866;2022-10-16T07:13:35;9.18;;;7.50;;
58071;SDS011;60383;46.626;18.866;2022-10-16T07:16:05;10.23;;;6.80;;
58071;SDS011;60383;46.626;18.866;2022-10-16T07:18:34;11.48;;;8.07;;
58071;SDS011;60383;46.626;18.866;2022-10-16T07:21:04;14.65;;;10.98;;
58071;SDS011;60383;46.626;18.866;2022-10-16T07:23:33;10.13;;;8.05;;
58071;SDS011;60383;46.626;18.866;2022-10-16T07:25:59;12.68;;;8.00;;
58071;SDS011;60383;46.626;18.866;2022-10-16T07:28:24;10.80;;;7.38;;
58071;SDS011;60383;46.626;18.866;2022-10-16T07:30:50;13.48;;;8.40;;
58071;SDS011;60383;46.626;18.866;2022-10-16T07:33:15;10.98;;;8.30;;
58071;SDS011;60383;46.626;18.866;2022-10-16T07:35:54;11.13;;;8.45;;
58071;SDS011;60383;46.626;18.866;2022-10-16T07:38:19;12.50;;;8.68;;
58071;SDS011;60383;46.626;18.866;2022-10-16T07:40:46;12.52;;;8.52;;
58071;SDS011;60383;46.626;18.866;2022-10-16T07:43:12;14.80;;;9.93;;
58071;SDS011;60383;46.626;18.866;2022-10-16T07:45:38;12.93;;;9.85;;
58071;SDS011;60383;46.626;18.866;2022-10-16T07:48:15;11.60;;;8.00;;
58071;SDS011;60383;46.626;18.866;2022-10-16T07:50:42;11.93;;;7.88;;
58071;SDS011;60383;46.626;18.866;2022-10-16T07:53:08;9.90;;;7.65;;
58071;SDS011;60383;46.626;18.866;2022-10-16T07:55:33;10.25;;;7.70;;
58071;SDS011;60383;46.626;18.866;2022-10-16T07:57:59;11.73;;;7.65;;
58071;SDS011;60383;46.626;18.866;2022-10-16T08:00:24;10.55;;;7.60;;
58071;SDS011;60383;46.626;18.866;2022-10-16T08:02:49;9.35;;;7.25;;
58071;SDS011;60383;46.626;18.866;2022-10-16T08:05:15;12.05;;;7.82;;
58071;SDS011;60383;46.626;18.866;2022-10-16T08:07:40;11.90;;;7.15;;
58071;SDS011;60383;46.626;18.866;2022-10-16T08:10:06;9.65;;;7.43;;
58071;SDS011;60383;46.626;18.866;2022-10-16T08:12:31;10.98;;;7.38;;
58071;SDS011;60383;46.626;18.866;2022-10-16T08:14:57;10.52;;;7.15;;
58071;SDS011;60383;46.626;18.866;2022-10-16T08:17:22;9.25;;;6.43;;
58071;SDS011;60383;46.626;18.866;2022-10-16T08:19:48;8.73;;;6.80;;
58071;SDS011;60383;46.626;18.866;2022-10-16T08:22:13;9.70;;;7.28;;
58071;SDS011;60383;46.626;18.866;2022-10-16T08:24:39;12.18;;;7.55;;
58071;SDS011;60383;46.626;18.866;2022-10-16T08:27:06;12.52;;;8.25;;
58071;SDS011;60383;46.626;18.866;2022-10-16T08:29:32;8.68;;;6.55;;
58071;SDS011;60383;46.626;18.866;2022-10-16T08:31:57;9.75;;;7.15;;
58071;SDS011;60383;46.626;18.866;2022-10-16T08:34:23;9.70;;;7.50;;
58071;SDS011;60383;46.626;18.866;2022-10-16T08:36:48;8.73;;;7.55;;
58071;SDS011;60383;46.626;18.866;2022-10-16T08:39:15;8.13;;;6.32;;
58071;SDS011;60383;46.626;18.866;2022-10-16T08:47:17;13.75;;;10.05;;
58071;SDS011;60383;46.626;18.866;2022-10-16T08:50:13;9.90;;;7.40;;
58071;SDS011;60383;46.626;18.866;2022-10-16T08:52:41;10.32;;;7.25;;
58071;SDS011;60383;46.626;18.866;2022-10-16T08:58:14;11.43;;;9.02;;
58071;SDS011;60383;46.626;18.866;2022-10-16T09:00:42;7.88;;;7.07;;
58071;SDS011;60383;46.626;18.866;2022-10-16T09:03:17;8.47;;;7.13;;
58071;SDS011;60383;46.626;18.866;2022-10-16T09:11:52;13.05;;;7.88;;
58071;SDS011;60383;46.626;18.866;2022-10-16T09:14:23;13.13;;;7.82;;
58071;SDS011;60383;46.626;18.866;2022-10-16T09:19:49;11.65;;;9.93;;
58071;SDS011;60383;46.626;18.866;2022-10-16T09:22:21;9.30;;;7.82;;
58071;SDS011;60383;46.626;18.866;2022-10-16T09:24:53;13.57;;;9.95;;
58071;SDS011;60383;46.626;18.866;2022-10-16T09:27:20;10.65;;;7.40;;
58071;SDS011;60383;46.626;18.866;2022-10-16T09:29:45;10.18;;;7.22;;
58071;SDS011;60383;46.626;18.866;2022-10-16T09:32:14;9.32;;;7.22;;
58071;SDS011;60383;46.626;18.866;2022-10-16T09:34:52;10.68;;;9.05;;
58071;SDS011;60383;46.626;18.866;2022-10-16T09:37:21;9.48;;;7.38;;
58071;SDS011;60383;46.626;18.866;2022-10-16T09:39:50;10.05;;;6.97;;
58071;SDS011;60383;46.626;18.866;2022-10-16T09:42:20;10.65;;;7.03;;
58071;SDS011;60383;46.626;18.866;2022-10-16T09:44:50;9.48;;;7.10;;
58071;SDS011;60383;46.626;18.866;2022-10-16T09:47:19;14.52;;;6.72;;
58071;SDS011;60383;46.626;18.866;2022-10-16T09:50:19;10.10;;;6.65;;
58071;SDS011;60383;46.626;18.866;2022-10-16T09:52:46;10.02;;;6.88;;
58071;SDS011;60383;46.626;18.866;2022-10-16T09:55:16;9.23;;;6.80;;
58071;SDS011;60383;46.626;18.866;2022-10-16T09:57:50;9.98;;;7.22;;
58071;SDS011;60383;46.626;18.866;2022-10-16T10:00:17;9.88;;;7.60;;
58071;SDS011;60383;46.626;18.866;2022-10-16T10:02:43;9.27;;;6.43;;
58071;SDS011;60383;46.626;18.866;2022-10-16T10:05:22;9.38;;;6.93;;
58071;SDS011;60383;46.626;18.866;2022-10-16T10:07:58;9.57;;;6.57;;
58071;SDS011;60383;46.626;18.866;2022-10-16T10:10:30;7.38;;;6.20;;
58071;SDS011;60383;46.626;18.866;2022-10-16T10:12:58;14.27;;;6.50;;
58071;SDS011;60383;46.626;18.866;2022-10-16T10:15:24;7.40;;;5.80;;
58071;SDS011;60383;46.626;18.866;2022-10-16T10:17:54;10.15;;;6.35;;
58071;SDS011;60383;46.626;18.866;2022-10-16T10:20:28;6.70;;;5.90;;
58071;SDS011;60383;46.626;18.866;2022-10-16T10:22:59;9.60;;;5.32;;
58071;SDS011;60383;46.626;18.866;2022-10-16T10:25:47;8.85;;;6.15;;
58071;SDS011;60383;46.626;18.866;2022-10-16T10:33:46;9.57;;;5.90;;
58071;SDS011;60383;46.626;18.866;2022-10-16T10:47:46;5.35;;;4.72;;
58071;SDS011;60383;46.626;18.866;2022-10-16T10:58:47;7.57;;;5.18;;
58071;SDS011;60383;46.626;18.866;2022-10-16T11:07:09;6.30;;;4.53;;
58071;SDS011;60383;46.626;18.866;2022-10-16T11:10:04;6.97;;;4.38;;
58071;SDS011;60383;46.626;18.866;2022-10-16T11:12:53;9.93;;;4.68;;
58071;SDS011;60383;46.626;18.866;2022-10-16T11:20:52;5.80;;;4.30;;
58071;SDS011;60383;46.626;18.866;2022-10-16T11:25:50;7.93;;;5.05;;
58071;SDS011;60383;46.626;18.866;2022-10-16T11:31:05;4.95;;;4.45;;
58071;SDS011;60383;46.626;18.866;2022-10-16T11:34:22;5.97;;;4.55;;
58071;SDS011;60383;46.626;18.866;2022-10-16T11:36:39;7.13;;;4.50;;
58071;SDS011;60383;46.626;18.866;2022-10-16T11:49:30;5.72;;;3.88;;
58071;SDS011;60383;46.626;18.866;2022-10-16T11:54:58;6.60;;;4.28;;
58071;SDS011;60383;46.626;18.866;2022-10-16T11:57:31;5.88;;;4.47;;
58071;SDS011;60383;46.626;18.866;2022-10-16T12:02:50;5.40;;;4.40;;
58071;SDS011;60383;46.626;18.866;2022-10-16T12:08:14;7.40;;;4.30;;
58071;SDS011;60383;46.626;18.866;2022-10-16T12:10:43;8.15;;;4.57;;
58071;SDS011;60383;46.626;18.866;2022-10-16T12:16:07;7.82;;;4.30;;
58071;SDS011;60383;46.626;18.866;2022-10-16T12:18:47;5.57;;;4.28;;
58071;SDS011;60383;46.626;18.866;2022-10-16T12:21:14;8.20;;;4.32;;
58071;SDS011;60383;46.626;18.866;2022-10-16T12:23:50;5.47;;;4.20;;
58071;SDS011;60383;46.626;18.866;2022-10-16T12:26:24;5.22;;;3.90;;
58071;SDS011;60383;46.626;18.866;2022-10-16T12:28:51;7.10;;;4.38;;
58071;SDS011;60383;46.626;18.866;2022-10-16T12:31:17;8.38;;;4.13;;
58071;SDS011;60383;46.626;18.866;2022-10-16T12:33:55;6.05;;;4.28;;
58071;SDS011;60383;46.626;18.866;2022-10-16T12:36:29;6.53;;;4.72;;
58071;SDS011;60383;46.626;18.866;2022-10-16T12:38:57;7.90;;;4.78;;
58071;SDS011;60383;46.626;18.866;2022-10-16T12:41:25;6.18;;;4.03;;
58071;SDS011;60383;46.626;18.866;2022-10-16T12:43:57;7.07;;;4.10;;
58071;SDS011;60383;46.626;18.866;2022-10-16T12:51:42;5.57;;;4.18;;
58071;SDS011;60383;46.626;18.866;2022-10-16T12:54:15;4.88;;;3.90;;
58071;SDS011;60383;46.626;18.866;2022-10-16T12:59:29;5.80;;;3.80;;
58071;SDS011;60383;46.626;18.866;2022-10-16T13:08:22;5.75;;;4.20;;
58071;SDS011;60383;46.626;18.866;2022-10-16T13:10:55;5.32;;;4.25;;
58071;SDS011;60383;46.626;18.866;2022-10-16T13:24:12;5.28;;;4.00;;
58071;SDS011;60383;46.626;18.866;2022-10-16T13:26:53;5.65;;;3.85;;
58071;SDS011;60383;46.626;18.866;2022-10-16T13:29:20;5.30;;;4.18;;
58071;SDS011;60383;46.626;18.866;2022-10-16T13:31:46;4.68;;;4.05;;
58071;SDS011;60383;46.626;18.866;2022-10-16T13:34:14;5.20;;;4.13;;
58071;SDS011;60383;46.626;18.866;2022-10-16T13:36:44;6.60;;;4.32;;
58071;SDS011;60383;46.626;18.866;2022-10-16T13:41:38;6.65;;;4.47;;
58071;SDS011;60383;46.626;18.866;2022-10-16T13:44:04;7.03;;;4.63;;
58071;SDS011;60383;46.626;18.866;2022-10-16T13:46:37;5.38;;;4.05;;
58071;SDS011;60383;46.626;18.866;2022-10-16T13:49:11;5.85;;;4.30;;
58071;SDS011;60383;46.626;18.866;2022-10-16T13:51:39;4.25;;;3.85;;
58071;SDS011;60383;46.626;18.866;2022-10-16T13:54:07;5.32;;;4.10;;
58071;SDS011;60383;46.626;18.866;2022-10-16T13:59:05;5.32;;;4.25;;
58071;SDS011;60383;46.626;18.866;2022-10-16T14:01:33;4.82;;;4.07;;
58071;SDS011;60383;46.626;18.866;2022-10-16T14:04:09;7.00;;;4.68;;
58071;SDS011;60383;46.626;18.866;2022-10-16T14:06:41;6.03;;;4.13;;
58071;SDS011;60383;46.626;18.866;2022-10-16T14:11:56;6.05;;;3.88;;
58071;SDS011;60383;46.626;18.866;2022-10-16T14:14:24;4.80;;;4.03;;
58071;SDS011;60383;46.626;18.866;2022-10-16T14:16:57;8.45;;;4.10;;
58071;SDS011;60383;46.626;18.866;2022-10-16T14:19:27;5.05;;;4.28;;
58071;SDS011;60383;46.626;18.866;2022-10-16T14:21:54;5.03;;;4.13;;
58071;SDS011;60383;46.626;18.866;2022-10-16T14:24:54;6.55;;;4.47;;
58071;SDS011;60383;46.626;18.866;2022-10-16T14:27:29;4.57;;;4.00;;
58071;SDS011;60383;46.626;18.866;2022-10-16T14:30:17;8.15;;;4.20;;
58071;SDS011;60383;46.626;18.866;2022-10-16T14:33:21;6.22;;;4.00;;
58071;SDS011;60383;46.626;18.866;2022-10-16T14:38:26;5.15;;;3.90;;
58071;SDS011;60383;46.626;18.866;2022-10-16T14:40:52;6.70;;;4.40;;
58071;SDS011;60383;46.626;18.866;2022-10-16T14:43:22;5.30;;;4.07;;
58071;SDS011;60383;46.626;18.866;2022-10-16T14:46:06;5.72;;;3.92;;
58071;SDS011;60383;46.626;18.866;2022-10-16T14:48:51;5.72;;;3.58;;
58071;SDS011;60383;46.626;18.866;2022-10-16T14:51:25;6.15;;;3.80;;
58071;SDS011;60383;46.626;18.866;2022-10-16T14:53:53;5.50;;;4.22;;
58071;SDS011;60383;46.626;18.866;2022-10-16T14:56:20;4.72;;;4.03;;
58071;SDS011;60383;46.626;18.866;2022-10-16T14:58:48;6.40;;;4.20;;
58071;SDS011;60383;46.626;18.866;2022-10-16T15:01:15;5.95;;;4.05;;
58071;SDS011;60383;46.626;18.866;2022-10-16T15:03:41;4.68;;;3.75;;
58071;SDS011;60383;46.626;18.866;2022-10-16T15:06:11;6.57;;;4.45;;
58071;SDS011;60383;46.626;18.866;2022-10-16T15:08:38;5.90;;;4.25;;
58071;SDS011;60383;46.626;18.866;2022-10-16T15:11:05;6.95;;;4.10;;
58071;SDS011;60383;46.626;18.866;2022-10-16T15:13:42;7.63;;;4.35;;
58071;SDS011;60383;46.626;18.866;2022-10-16T15:16:10;6.75;;;3.95;;
58071;SDS011;60383;46.626;18.866;2022-10-16T15:18:37;4.75;;;3.88;;
58071;SDS011;60383;46.626;18.866;2022-10-16T15:21:03;5.47;;;4.07;;
58071;SDS011;60383;46.626;18.866;2022-10-16T15:23:29;6.75;;;4.10;;
58071;SDS011;60383;46.626;18.866;2022-10-16T15:25:55;7.68;;;4.10;;
58071;SDS011;60383;46.626;18.866;2022-10-16T15:28:22;8.65;;;3.78;;
58071;SDS011;60383;46.626;18.866;2022-10-16T15:30:50;5.35;;;4.20;;
58071;SDS011;60383;46.626;18.866;2022-10-16T15:33:19;6.25;;;4.05;;
58071;SDS011;60383;46.626;18.866;2022-10-16T15:35:52;6.78;;;4.30;;
58071;SDS011;60383;46.626;18.866;2022-10-16T15:38:19;4.93;;;3.80;;
58071;SDS011;60383;46.626;18.866;2022-10-16T15:40:47;10.65;;;4.35;;
58071;SDS011;60383;46.626;18.866;2022-10-16T15:43:14;6.03;;;3.53;;
58071;SDS011;60383;46.626;18.866;2022-10-16T15:45:40;8.23;;;4.55;;
58071;SDS011;60383;46.626;18.866;2022-10-16T15:48:08;5.70;;;3.85;;
58071;SDS011;60383;46.626;18.866;2022-10-16T15:50:37;5.88;;;3.97;;
58071;SDS011;60383;46.626;18.866;2022-10-16T15:53:04;6.90;;;4.15;;
58071;SDS011;60383;46.626;18.866;2022-10-16T15:55:30;5.90;;;4.00;;
58071;SDS011;60383;46.626;18.866;2022-10-16T15:57:56;10.95;;;4.35;;
58071;SDS011;60383;46.626;18.866;2022-10-16T16:00:21;7.05;;;4.20;;
58071;SDS011;60383;46.626;18.866;2022-10-16T16:02:51;4.68;;;4.00;;
58071;SDS011;60383;46.626;18.866;2022-10-16T16:05:18;8.50;;;4.10;;
58071;SDS011;60383;46.626;18.866;2022-10-16T16:07:45;6.05;;;4.03;;
58071;SDS011;60383;46.626;18.866;2022-10-16T16:10:11;5.50;;;4.20;;
58071;SDS011;60383;46.626;18.866;2022-10-16T16:12:37;7.40;;;4.60;;
58071;SDS011;60383;46.626;18.866;2022-10-16T16:15:03;8.88;;;4.95;;
58071;SDS011;60383;46.626;18.866;2022-10-16T16:17:31;8.02;;;5.00;;
58071;SDS011;60383;46.626;18.866;2022-10-16T16:19:57;9.50;;;5.47;;
58071;SDS011;60383;46.626;18.866;2022-10-16T16:22:22;11.55;;;5.32;;
58071;SDS011;60383;46.626;18.866;2022-10-16T16:24:48;7.90;;;5.65;;
58071;SDS011;60383;46.626;18.866;2022-10-16T16:27:13;7.55;;;4.93;;
58071;SDS011;60383;46.626;18.866;2022-10-16T16:29:39;8.95;;;5.65;;
58071;SDS011;60383;46.626;18.866;2022-10-16T16:32:05;8.02;;;5.43;;
58071;SDS011;60383;46.626;18.866;2022-10-16T16:34:30;7.13;;;5.28;;
58071;SDS011;60383;46.626;18.866;2022-10-16T16:36:56;8.82;;;5.57;;
58071;SDS011;60383;46.626;18.866;2022-10-16T16:39:21;6.72;;;4.57;;
58071;SDS011;60383;46.626;18.866;2022-10-16T16:41:47;9.55;;;4.93;;
58071;SDS011;60383;46.626;18.866;2022-10-16T16:44:13;7.95;;;5.43;;
58071;SDS011;60383;46.626;18.866;2022-10-16T16:46:40;8.50;;;5.50;;
58071;SDS011;60383;46.626;18.866;2022-10-16T16:49:08;10.07;;;5.25;;
58071;SDS011;60383;46.626;18.866;2022-10-16T16:51:35;5.82;;;4.78;;
58071;SDS011;60383;46.626;18.866;2022-10-16T16:54:01;7.35;;;5.38;;
58071;SDS011;60383;46.626;18.866;2022-10-16T16:56:26;11.05;;;5.45;;